CNK6 weather

Owen Sound (Grey Bruce Health Services) Heliport
Owen Sound, Ontario, Canada

Public forecast

Using degrees Celsius for public forecast. Weather courtesy of forecast.io.

Closest aviation weather report (METAR) to Owen Sound (Grey Bruce Health Services) Heliport

Closest report is Wiarton Airport, 13.5 nm (25.0 km) NW. Retrieved 2020/02/20 15:00 UTC (16 minutes ago):

CYVV 201500Z 34006KT 280V020 15SM FEW012 BKN025 M09/M14 A3053 RMK SF2SC4 SLP354

Closest aviation forecast (TAF) to Owen Sound (Grey Bruce Health Services) Heliport

Closest forecast is Wiarton Airport, 13.5 nm (25.0 km) NW. Retrieved 2020/02/20 14:00 UTC (1 hour ago):

TAF CYVV 201338Z 2014/2024 VRB03KT P6SM BKN025 TEMPO 2014/2018 VRB12G22KT 11/2SM -SHSN OVC015 FM201800 31012G22KT P6SM BKN025 TEMPO 2018/2020 5SM -SHSN BKN020 BECMG 2020/2022 VRB03KT RMK NXT FCST BY 202000Z